Roherstown, Pennsylvania
Current Conditions -  °F | °C
As of 8:53 AM on Monday 20 Oct 2014 (Local Time) from KLNS Reporting Station
Clear Clear  
Wind Chill: 41°   Ceiling: Unl
Heat Index: 41°   Visibility: 8mi
Dew Point: 37°   Wind: 0mph
Humidity: 86%   Direction: NA
Pressure: 30.11"   Gusts: NA
Location:  40.0115°N, 76.3553°W
Report Text: KLNS 201253Z 00000KT 8SM CLR 05/03 A3011 RMK AO2 SLP200 T00500028
Loading
Personal Weather Stations






























Interactive Weather Map New forecast layout! Learn more

10-Day Weather Forecast

Advertisements
Track Severe Weather on mobile